sensor_id;sensor_type;location;lat;lon;timestamp;P1;durP1;ratioP1;P2;durP2;ratioP2
2129;SDS011;1071;52.544;13.374;2022-11-12T00:00:52;5.15;;;4.65;;
2129;SDS011;1071;52.544;13.374;2022-11-12T00:03:20;4.50;;;4.10;;
2129;SDS011;1071;52.544;13.374;2022-11-12T00:05:48;4.68;;;4.25;;
2129;SDS011;1071;52.544;13.374;2022-11-12T00:08:17;5.50;;;4.97;;
2129;SDS011;1071;52.544;13.374;2022-11-12T00:10:45;6.30;;;5.40;;
2129;SDS011;1071;52.544;13.374;2022-11-12T00:13:16;4.90;;;4.50;;
2129;SDS011;1071;52.544;13.374;2022-11-12T00:15:44;5.53;;;4.55;;
2129;SDS011;1071;52.544;13.374;2022-11-12T00:18:11;4.15;;;3.80;;
2129;SDS011;1071;52.544;13.374;2022-11-12T00:20:38;4.22;;;3.88;;
2129;SDS011;1071;52.544;13.374;2022-11-12T00:23:06;4.57;;;4.15;;
2129;SDS011;1071;52.544;13.374;2022-11-12T00:25:35;5.55;;;4.55;;
2129;SDS011;1071;52.544;13.374;2022-11-12T00:28:07;4.68;;;3.58;;
2129;SDS011;1071;52.544;13.374;2022-11-12T00:30:37;6.00;;;5.40;;
2129;SDS011;1071;52.544;13.374;2022-11-12T00:33:06;5.38;;;4.75;;
2129;SDS011;1071;52.544;13.374;2022-11-12T00:35:33;5.32;;;4.80;;
2129;SDS011;1071;52.544;13.374;2022-11-12T00:38:00;7.00;;;4.80;;
2129;SDS011;1071;52.544;13.374;2022-11-12T00:40:27;6.00;;;5.10;;
2129;SDS011;1071;52.544;13.374;2022-11-12T00:46:02;6.75;;;5.05;;
2129;SDS011;1071;52.544;13.374;2022-11-12T00:48:36;4.20;;;3.50;;
2129;SDS011;1071;52.544;13.374;2022-11-12T00:51:28;4.80;;;4.40;;
2129;SDS011;1071;52.544;13.374;2022-11-12T00:54:09;5.43;;;4.00;;
2129;SDS011;1071;52.544;13.374;2022-11-12T00:56:40;5.80;;;4.00;;
2129;SDS011;1071;52.544;13.374;2022-11-12T00:59:21;5.18;;;3.63;;
2129;SDS011;1071;52.544;13.374;2022-11-12T01:05:22;5.13;;;4.57;;
2129;SDS011;1071;52.544;13.374;2022-11-12T01:07:52;4.15;;;3.70;;
2129;SDS011;1071;52.544;13.374;2022-11-12T01:10:27;5.05;;;3.97;;
2129;SDS011;1071;52.544;13.374;2022-11-12T01:12:54;4.38;;;3.95;;
2129;SDS011;1071;52.544;13.374;2022-11-12T01:15:22;4.97;;;4.30;;
2129;SDS011;1071;52.544;13.374;2022-11-12T01:17:49;4.22;;;3.70;;
2129;SDS011;1071;52.544;13.374;2022-11-12T01:23:48;4.75;;;4.22;;
2129;SDS011;1071;52.544;13.374;2022-11-12T01:26:18;4.95;;;4.15;;
2129;SDS011;1071;52.544;13.374;2022-11-12T01:28:46;5.63;;;4.50;;
2129;SDS011;1071;52.544;13.374;2022-11-12T01:31:15;4.60;;;3.92;;
2129;SDS011;1071;52.544;13.374;2022-11-12T01:33:44;7.85;;;4.07;;
2129;SDS011;1071;52.544;13.374;2022-11-12T01:36:14;4.78;;;4.10;;
2129;SDS011;1071;52.544;13.374;2022-11-12T01:38:43;5.93;;;5.18;;
2129;SDS011;1071;52.544;13.374;2022-11-12T01:41:11;4.30;;;3.90;;
2129;SDS011;1071;52.544;13.374;2022-11-12T01:43:40;6.03;;;4.60;;
2129;SDS011;1071;52.544;13.374;2022-11-12T01:46:11;5.55;;;5.05;;
2129;SDS011;1071;52.544;13.374;2022-11-12T01:48:44;5.55;;;4.97;;
2129;SDS011;1071;52.544;13.374;2022-11-12T01:51:24;4.95;;;4.47;;
2129;SDS011;1071;52.544;13.374;2022-11-12T01:53:57;4.43;;;4.03;;
2129;SDS011;1071;52.544;13.374;2022-11-12T01:56:28;5.32;;;4.82;;
2129;SDS011;1071;52.544;13.374;2022-11-12T01:58:58;5.97;;;5.03;;
2129;SDS011;1071;52.544;13.374;2022-11-12T02:01:27;5.63;;;4.53;;
2129;SDS011;1071;52.544;13.374;2022-11-12T02:03:55;5.07;;;4.57;;
2129;SDS011;1071;52.544;13.374;2022-11-12T02:06:24;5.30;;;4.45;;
2129;SDS011;1071;52.544;13.374;2022-11-12T02:08:51;6.70;;;5.72;;
2129;SDS011;1071;52.544;13.374;2022-11-12T02:11:20;6.00;;;5.25;;
2129;SDS011;1071;52.544;13.374;2022-11-12T02:13:50;5.13;;;4.63;;
2129;SDS011;1071;52.544;13.374;2022-11-12T02:16:25;5.50;;;5.00;;
2129;SDS011;1071;52.544;13.374;2022-11-12T02:18:54;6.28;;;4.60;;
2129;SDS011;1071;52.544;13.374;2022-11-12T02:21:22;10.65;;;5.05;;
2129;SDS011;1071;52.544;13.374;2022-11-12T02:23:56;6.03;;;4.38;;
2129;SDS011;1071;52.544;13.374;2022-11-12T02:26:27;4.80;;;4.32;;
2129;SDS011;1071;52.544;13.374;2022-11-12T02:28:57;4.65;;;4.25;;
2129;SDS011;1071;52.544;13.374;2022-11-12T02:31:28;6.13;;;4.75;;
2129;SDS011;1071;52.544;13.374;2022-11-12T02:33:56;4.45;;;4.05;;
2129;SDS011;1071;52.544;13.374;2022-11-12T02:36:24;6.13;;;5.10;;
2129;SDS011;1071;52.544;13.374;2022-11-12T02:38:52;5.95;;;5.35;;
2129;SDS011;1071;52.544;13.374;2022-11-12T02:41:19;7.20;;;5.25;;
2129;SDS011;1071;52.544;13.374;2022-11-12T02:43:46;6.25;;;5.38;;
2129;SDS011;1071;52.544;13.374;2022-11-12T02:46:13;8.25;;;4.70;;
2129;SDS011;1071;52.544;13.374;2022-11-12T02:48:40;5.35;;;4.25;;
2129;SDS011;1071;52.544;13.374;2022-11-12T02:51:09;4.90;;;4.40;;
2129;SDS011;1071;52.544;13.374;2022-11-12T02:53:38;4.72;;;4.32;;
2129;SDS011;1071;52.544;13.374;2022-11-12T02:56:05;14.95;;;12.82;;
2129;SDS011;1071;52.544;13.374;2022-11-12T02:58:33;14.75;;;9.95;;
2129;SDS011;1071;52.544;13.374;2022-11-12T03:01:02;7.10;;;5.82;;
2129;SDS011;1071;52.544;13.374;2022-11-12T03:03:29;5.68;;;4.90;;
2129;SDS011;1071;52.544;13.374;2022-11-12T03:05:56;4.80;;;4.32;;
2129;SDS011;1071;52.544;13.374;2022-11-12T03:08:30;9.05;;;4.50;;
2129;SDS011;1071;52.544;13.374;2022-11-12T03:11:04;6.13;;;4.43;;
2129;SDS011;1071;52.544;13.374;2022-11-12T03:13:31;4.95;;;4.50;;
2129;SDS011;1071;52.544;13.374;2022-11-12T03:15:59;5.45;;;3.92;;
2129;SDS011;1071;52.544;13.374;2022-11-12T03:18:26;4.40;;;3.55;;
2129;SDS011;1071;52.544;13.374;2022-11-12T03:20:53;4.10;;;3.67;;
2129;SDS011;1071;52.544;13.374;2022-11-12T03:23:21;5.05;;;4.43;;
2129;SDS011;1071;52.544;13.374;2022-11-12T03:25:48;5.53;;;4.00;;
2129;SDS011;1071;52.544;13.374;2022-11-12T03:28:16;5.10;;;3.80;;
2129;SDS011;1071;52.544;13.374;2022-11-12T03:30:44;5.70;;;4.57;;
2129;SDS011;1071;52.544;13.374;2022-11-12T03:33:12;5.85;;;4.95;;
2129;SDS011;1071;52.544;13.374;2022-11-12T03:35:41;5.25;;;4.30;;
2129;SDS011;1071;52.544;13.374;2022-11-12T03:38:10;4.20;;;3.65;;
2129;SDS011;1071;52.544;13.374;2022-11-12T03:40:37;6.15;;;4.32;;
2129;SDS011;1071;52.544;13.374;2022-11-12T03:43:04;5.93;;;5.38;;
2129;SDS011;1071;52.544;13.374;2022-11-12T03:45:33;6.20;;;5.60;;
2129;SDS011;1071;52.544;13.374;2022-11-12T03:48:03;6.80;;;5.43;;
2129;SDS011;1071;52.544;13.374;2022-11-12T03:50:30;4.30;;;3.90;;
2129;SDS011;1071;52.544;13.374;2022-11-12T03:53:00;5.85;;;4.95;;
2129;SDS011;1071;52.544;13.374;2022-11-12T03:55:29;5.18;;;4.60;;
2129;SDS011;1071;52.544;13.374;2022-11-12T03:57:59;6.47;;;4.18;;
2129;SDS011;1071;52.544;13.374;2022-11-12T04:00:27;4.65;;;4.18;;
2129;SDS011;1071;52.544;13.374;2022-11-12T04:02:56;5.40;;;4.22;;
2129;SDS011;1071;52.544;13.374;2022-11-12T04:05:24;5.22;;;4.18;;
2129;SDS011;1071;52.544;13.374;2022-11-12T04:08:11;4.82;;;4.43;;
2129;SDS011;1071;52.544;13.374;2022-11-12T04:11:00;4.53;;;4.10;;
2129;SDS011;1071;52.544;13.374;2022-11-12T04:13:28;4.45;;;3.90;;
2129;SDS011;1071;52.544;13.374;2022-11-12T04:15:59;4.03;;;3.63;;
2129;SDS011;1071;52.544;13.374;2022-11-12T04:18:47;4.53;;;3.88;;
2129;SDS011;1071;52.544;13.374;2022-11-12T04:21:33;4.40;;;3.95;;
2129;SDS011;1071;52.544;13.374;2022-11-12T04:24:23;5.05;;;4.10;;
2129;SDS011;1071;52.544;13.374;2022-11-12T04:27:09;4.10;;;3.70;;
2129;SDS011;1071;52.544;13.374;2022-11-12T04:29:39;7.45;;;5.07;;
2129;SDS011;1071;52.544;13.374;2022-11-12T04:32:24;5.38;;;4.00;;
2129;SDS011;1071;52.544;13.374;2022-11-12T04:34:55;4.97;;;4.47;;
2129;SDS011;1071;52.544;13.374;2022-11-12T04:37:24;3.78;;;3.47;;
2129;SDS011;1071;52.544;13.374;2022-11-12T04:39:52;5.15;;;4.38;;
2129;SDS011;1071;52.544;13.374;2022-11-12T04:42:40;4.70;;;4.30;;
2129;SDS011;1071;52.544;13.374;2022-11-12T04:45:25;5.47;;;4.00;;
2129;SDS011;1071;52.544;13.374;2022-11-12T04:47:54;4.03;;;3.55;;
2129;SDS011;1071;52.544;13.374;2022-11-12T04:50:22;5.10;;;4.00;;
2129;SDS011;1071;52.544;13.374;2022-11-12T04:52:49;5.90;;;4.20;;
2129;SDS011;1071;52.544;13.374;2022-11-12T04:55:16;6.93;;;4.18;;
2129;SDS011;1071;52.544;13.374;2022-11-12T04:57:43;4.53;;;4.05;;
2129;SDS011;1071;52.544;13.374;2022-11-12T05:00:11;6.40;;;4.30;;
2129;SDS011;1071;52.544;13.374;2022-11-12T05:02:39;6.95;;;4.15;;
2129;SDS011;1071;52.544;13.374;2022-11-12T05:05:06;4.72;;;4.05;;
2129;SDS011;1071;52.544;13.374;2022-11-12T05:07:35;5.30;;;4.80;;
2129;SDS011;1071;52.544;13.374;2022-11-12T05:10:05;5.38;;;4.45;;
2129;SDS011;1071;52.544;13.374;2022-11-12T05:12:33;4.95;;;4.50;;
2129;SDS011;1071;52.544;13.374;2022-11-12T05:15:00;7.93;;;4.88;;
2129;SDS011;1071;52.544;13.374;2022-11-12T05:17:28;5.97;;;5.10;;
2129;SDS011;1071;52.544;13.374;2022-11-12T05:19:54;6.72;;;4.78;;
2129;SDS011;1071;52.544;13.374;2022-11-12T05:22:22;39.42;;;25.45;;
2129;SDS011;1071;52.544;13.374;2022-11-12T05:24:50;6.25;;;5.38;;
2129;SDS011;1071;52.544;13.374;2022-11-12T05:27:20;6.03;;;4.78;;
2129;SDS011;1071;52.544;13.374;2022-11-12T05:29:47;4.78;;;4.25;;
2129;SDS011;1071;52.544;13.374;2022-11-12T05:32:16;6.32;;;4.90;;
2129;SDS011;1071;52.544;13.374;2022-11-12T05:34:51;4.65;;;4.25;;
2129;SDS011;1071;52.544;13.374;2022-11-12T05:37:18;7.22;;;5.47;;
2129;SDS011;1071;52.544;13.374;2022-11-12T05:39:46;6.60;;;5.07;;
2129;SDS011;1071;52.544;13.374;2022-11-12T05:42:23;6.10;;;4.70;;
2129;SDS011;1071;52.544;13.374;2022-11-12T05:44:51;7.45;;;4.85;;
2129;SDS011;1071;52.544;13.374;2022-11-12T05:47:18;9.48;;;4.82;;
2129;SDS011;1071;52.544;13.374;2022-11-12T05:49:45;6.68;;;5.68;;
2129;SDS011;1071;52.544;13.374;2022-11-12T05:52:12;6.00;;;5.30;;
2129;SDS011;1071;52.544;13.374;2022-11-12T05:54:39;7.47;;;4.88;;
2129;SDS011;1071;52.544;13.374;2022-11-12T05:57:06;6.22;;;5.10;;
2129;SDS011;1071;52.544;13.374;2022-11-12T05:59:35;6.45;;;5.78;;
2129;SDS011;1071;52.544;13.374;2022-11-12T06:02:01;7.65;;;6.25;;
2129;SDS011;1071;52.544;13.374;2022-11-12T06:04:29;7.05;;;6.05;;
2129;SDS011;1071;52.544;13.374;2022-11-12T06:06:56;8.05;;;6.57;;
2129;SDS011;1071;52.544;13.374;2022-11-12T06:09:28;7.72;;;5.35;;
2129;SDS011;1071;52.544;13.374;2022-11-12T06:11:55;7.35;;;4.70;;
2129;SDS011;1071;52.544;13.374;2022-11-12T06:14:22;5.82;;;4.75;;
2129;SDS011;1071;52.544;13.374;2022-11-12T06:16:56;7.47;;;5.43;;
2129;SDS011;1071;52.544;13.374;2022-11-12T06:19:23;5.22;;;4.72;;
2129;SDS011;1071;52.544;13.374;2022-11-12T06:21:50;7.55;;;4.93;;
2129;SDS011;1071;52.544;13.374;2022-11-12T06:24:17;5.05;;;4.55;;
2129;SDS011;1071;52.544;13.374;2022-11-12T06:26:44;8.32;;;4.70;;
2129;SDS011;1071;52.544;13.374;2022-11-12T06:29:11;6.90;;;5.25;;
2129;SDS011;1071;52.544;13.374;2022-11-12T06:31:38;6.00;;;4.40;;
2129;SDS011;1071;52.544;13.374;2022-11-12T06:34:13;4.97;;;4.30;;
2129;SDS011;1071;52.544;13.374;2022-11-12T06:36:42;5.40;;;4.70;;
2129;SDS011;1071;52.544;13.374;2022-11-12T06:39:09;5.07;;;4.60;;
2129;SDS011;1071;52.544;13.374;2022-11-12T06:41:37;6.65;;;5.22;;
2129;SDS011;1071;52.544;13.374;2022-11-12T06:44:04;7.47;;;5.55;;
2129;SDS011;1071;52.544;13.374;2022-11-12T06:46:32;8.57;;;5.65;;
2129;SDS011;1071;52.544;13.374;2022-11-12T06:49:01;7.50;;;4.93;;
2129;SDS011;1071;52.544;13.374;2022-11-12T06:51:30;6.40;;;5.68;;
2129;SDS011;1071;52.544;13.374;2022-11-12T06:53:57;7.38;;;5.70;;
2129;SDS011;1071;52.544;13.374;2022-11-12T06:56:24;8.93;;;4.57;;
2129;SDS011;1071;52.544;13.374;2022-11-12T06:58:51;8.98;;;4.93;;
2129;SDS011;1071;52.544;13.374;2022-11-12T07:01:19;7.38;;;6.20;;
2129;SDS011;1071;52.544;13.374;2022-11-12T07:03:49;7.10;;;6.15;;
2129;SDS011;1071;52.544;13.374;2022-11-12T07:06:18;7.13;;;5.90;;
2129;SDS011;1071;52.544;13.374;2022-11-12T07:08:49;7.40;;;6.38;;
2129;SDS011;1071;52.544;13.374;2022-11-12T07:11:17;6.95;;;5.57;;
2129;SDS011;1071;52.544;13.374;2022-11-12T07:13:45;6.65;;;5.47;;
2129;SDS011;1071;52.544;13.374;2022-11-12T07:16:13;6.40;;;5.68;;
2129;SDS011;1071;52.544;13.374;2022-11-12T07:18:42;6.32;;;5.72;;
2129;SDS011;1071;52.544;13.374;2022-11-12T07:21:10;7.15;;;5.25;;
2129;SDS011;1071;52.544;13.374;2022-11-12T07:23:41;8.40;;;6.25;;
2129;SDS011;1071;52.544;13.374;2022-11-12T07:26:11;5.95;;;5.30;;
2129;SDS011;1071;52.544;13.374;2022-11-12T07:28:42;7.38;;;5.43;;
2129;SDS011;1071;52.544;13.374;2022-11-12T07:31:15;7.15;;;5.05;;
2129;SDS011;1071;52.544;13.374;2022-11-12T07:33:47;8.20;;;5.95;;
2129;SDS011;1071;52.544;13.374;2022-11-12T07:36:16;8.73;;;5.90;;
2129;SDS011;1071;52.544;13.374;2022-11-12T07:38:45;6.47;;;5.55;;
2129;SDS011;1071;52.544;13.374;2022-11-12T07:41:19;7.15;;;5.80;;
2129;SDS011;1071;52.544;13.374;2022-11-12T07:43:48;9.88;;;6.38;;
2129;SDS011;1071;52.544;13.374;2022-11-12T07:46:18;6.65;;;5.60;;
2129;SDS011;1071;52.544;13.374;2022-11-12T07:48:52;6.47;;;5.22;;
2129;SDS011;1071;52.544;13.374;2022-11-12T07:51:30;5.45;;;4.97;;
2129;SDS011;1071;52.544;13.374;2022-11-12T07:53:57;6.55;;;5.35;;
2129;SDS011;1071;52.544;13.374;2022-11-12T07:56:27;7.18;;;6.05;;
2129;SDS011;1071;52.544;13.374;2022-11-12T07:58:56;12.45;;;9.52;;
2129;SDS011;1071;52.544;13.374;2022-11-12T08:01:27;11.50;;;8.23;;
2129;SDS011;1071;52.544;13.374;2022-11-12T08:03:56;7.85;;;6.53;;
2129;SDS011;1071;52.544;13.374;2022-11-12T08:06:24;7.75;;;6.07;;
2129;SDS011;1071;52.544;13.374;2022-11-12T08:08:52;9.77;;;6.90;;
2129;SDS011;1071;52.544;13.374;2022-11-12T08:11:22;6.43;;;5.82;;
2129;SDS011;1071;52.544;13.374;2022-11-12T08:13:51;7.45;;;6.75;;
2129;SDS011;1071;52.544;13.374;2022-11-12T08:16:21;10.68;;;7.93;;
2129;SDS011;1071;52.544;13.374;2022-11-12T08:18:48;7.03;;;6.32;;
2129;SDS011;1071;52.544;13.374;2022-11-12T08:21:18;7.32;;;6.28;;
2129;SDS011;1071;52.544;13.374;2022-11-12T08:23:45;7.65;;;6.20;;
2129;SDS011;1071;52.544;13.374;2022-11-12T08:26:13;7.10;;;5.32;;
2129;SDS011;1071;52.544;13.374;2022-11-12T08:28:43;5.82;;;5.32;;
2129;SDS011;1071;52.544;13.374;2022-11-12T08:31:13;7.38;;;6.15;;
2129;SDS011;1071;52.544;13.374;2022-11-12T08:33:52;9.85;;;7.45;;
2129;SDS011;1071;52.544;13.374;2022-11-12T08:36:36;8.43;;;7.60;;
2129;SDS011;1071;52.544;13.374;2022-11-12T08:39:07;9.65;;;8.65;;
2129;SDS011;1071;52.544;13.374;2022-11-12T08:41:34;11.77;;;10.57;;
2129;SDS011;1071;52.544;13.374;2022-11-12T08:44:04;15.90;;;12.30;;
2129;SDS011;1071;52.544;13.374;2022-11-12T08:46:32;15.93;;;12.93;;
2129;SDS011;1071;52.544;13.374;2022-11-12T08:48:59;12.25;;;10.68;;
2129;SDS011;1071;52.544;13.374;2022-11-12T08:51:26;10.52;;;9.05;;
2129;SDS011;1071;52.544;13.374;2022-11-12T08:53:57;10.18;;;7.85;;
2129;SDS011;1071;52.544;13.374;2022-11-12T08:56:24;8.35;;;7.18;;
2129;SDS011;1071;52.544;13.374;2022-11-12T08:58:51;9.73;;;8.13;;
2129;SDS011;1071;52.544;13.374;2022-11-12T09:01:18;7.50;;;6.38;;
2129;SDS011;1071;52.544;13.374;2022-11-12T09:03:46;7.65;;;6.95;;
2129;SDS011;1071;52.544;13.374;2022-11-12T09:06:17;7.55;;;6.18;;
2129;SDS011;1071;52.544;13.374;2022-11-12T09:08:46;5.75;;;5.07;;
2129;SDS011;1071;52.544;13.374;2022-11-12T09:11:16;6.35;;;5.75;;
2129;SDS011;1071;52.544;13.374;2022-11-12T09:13:43;6.97;;;6.28;;
2129;SDS011;1071;52.544;13.374;2022-11-12T09:16:13;6.30;;;5.70;;
2129;SDS011;1071;52.544;13.374;2022-11-12T09:18:42;11.68;;;7.13;;
2129;SDS011;1071;52.544;13.374;2022-11-12T09:21:10;6.10;;;5.60;;
2129;SDS011;1071;52.544;13.374;2022-11-12T09:23:38;7.43;;;6.72;;
2129;SDS011;1071;52.544;13.374;2022-11-12T09:26:05;8.55;;;6.57;;
2129;SDS011;1071;52.544;13.374;2022-11-12T09:28:32;6.43;;;5.43;;
2129;SDS011;1071;52.544;13.374;2022-11-12T09:31:00;10.15;;;7.35;;
2129;SDS011;1071;52.544;13.374;2022-11-12T09:33:28;8.48;;;6.93;;
2129;SDS011;1071;52.544;13.374;2022-11-12T09:36:00;8.60;;;7.70;;
2129;SDS011;1071;52.544;13.374;2022-11-12T09:38:32;8.80;;;7.13;;
2129;SDS011;1071;52.544;13.374;2022-11-12T09:41:02;8.00;;;6.95;;
2129;SDS011;1071;52.544;13.374;2022-11-12T09:43:44;8.55;;;7.70;;
2129;SDS011;1071;52.544;13.374;2022-11-12T09:46:18;9.57;;;7.57;;
2129;SDS011;1071;52.544;13.374;2022-11-12T09:48:57;6.95;;;6.25;;
2129;SDS011;1071;52.544;13.374;2022-11-12T09:51:34;8.60;;;7.70;;
2129;SDS011;1071;52.544;13.374;2022-11-12T09:54:20;10.27;;;8.35;;
2129;SDS011;1071;52.544;13.374;2022-11-12T09:56:49;8.93;;;7.95;;
2129;SDS011;1071;52.544;13.374;2022-11-12T09:59:17;10.45;;;7.68;;
2129;SDS011;1071;52.544;13.374;2022-11-12T10:01:48;10.32;;;8.05;;
2129;SDS011;1071;52.544;13.374;2022-11-12T10:07:38;11.60;;;9.68;;
2129;SDS011;1071;52.544;13.374;2022-11-12T10:10:14;8.65;;;7.78;;
2129;SDS011;1071;52.544;13.374;2022-11-12T10:12:49;9.70;;;8.27;;
2129;SDS011;1071;52.544;13.374;2022-11-12T10:15:35;9.07;;;8.20;;
2129;SDS011;1071;52.544;13.374;2022-11-12T10:18:31;9.05;;;8.15;;
2129;SDS011;1071;52.544;13.374;2022-11-12T10:21:11;9.87;;;8.10;;
2129;SDS011;1071;52.544;13.374;2022-11-12T10:23:53;8.95;;;7.50;;
2129;SDS011;1071;52.544;13.374;2022-11-12T10:26:22;9.82;;;8.80;;
2129;SDS011;1071;52.544;13.374;2022-11-12T10:28:52;10.80;;;8.07;;
2129;SDS011;1071;52.544;13.374;2022-11-12T10:31:26;8.97;;;8.07;;
2129;SDS011;1071;52.544;13.374;2022-11-12T10:34:01;11.20;;;8.63;;
2129;SDS011;1071;52.544;13.374;2022-11-12T10:36:40;9.23;;;8.03;;
2129;SDS011;1071;52.544;13.374;2022-11-12T10:42:03;11.53;;;8.47;;
2129;SDS011;1071;52.544;13.374;2022-11-12T10:44:32;9.97;;;8.97;;
2129;SDS011;1071;52.544;13.374;2022-11-12T10:47:17;14.43;;;7.80;;
2129;SDS011;1071;52.544;13.374;2022-11-12T10:50:02;9.63;;;7.43;;
2129;SDS011;1071;52.544;13.374;2022-11-12T10:52:35;10.90;;;7.83;;
2129;SDS011;1071;52.544;13.374;2022-11-12T10:55:18;8.80;;;7.90;;
2129;SDS011;1071;52.544;13.374;2022-11-12T10:58:00;10.23;;;8.77;;
2129;SDS011;1071;52.544;13.374;2022-11-12T11:00:48;10.47;;;7.67;;
2129;SDS011;1071;52.544;13.374;2022-11-12T11:03:21;8.23;;;7.43;;
2129;SDS011;1071;52.544;13.374;2022-11-12T11:05:52;9.13;;;7.70;;
2129;SDS011;1071;52.544;13.374;2022-11-12T11:08:30;8.33;;;7.23;;
2129;SDS011;1071;52.544;13.374;2022-11-12T11:11:22;7.33;;;6.20;;
2129;SDS011;1071;52.544;13.374;2022-11-12T11:13:53;9.67;;;6.83;;
2129;SDS011;1071;52.544;13.374;2022-11-12T11:16:22;9.60;;;6.70;;
2129;SDS011;1071;52.544;13.374;2022-11-12T11:18:53;7.87;;;6.53;;
2129;SDS011;1071;52.544;13.374;2022-11-12T11:21:31;8.80;;;7.37;;
2129;SDS011;1071;52.544;13.374;2022-11-12T11:24:17;8.17;;;6.10;;
2129;SDS011;1071;52.544;13.374;2022-11-12T11:26:56;6.83;;;6.20;;
2129;SDS011;1071;52.544;13.374;2022-11-12T11:29:36;8.57;;;7.77;;
2129;SDS011;1071;52.544;13.374;2022-11-12T11:32:20;8.97;;;6.70;;
2129;SDS011;1071;52.544;13.374;2022-11-12T11:35:04;11.50;;;7.10;;
2129;SDS011;1071;52.544;13.374;2022-11-12T11:37:42;7.70;;;6.33;;
2129;SDS011;1071;52.544;13.374;2022-11-12T11:40:18;8.83;;;7.23;;
2129;SDS011;1071;52.544;13.374;2022-11-12T11:42:57;8.67;;;7.30;;
2129;SDS011;1071;52.544;13.374;2022-11-12T11:45:44;10.20;;;7.70;;
2129;SDS011;1071;52.544;13.374;2022-11-12T11:48:22;7.83;;;6.83;;
2129;SDS011;1071;52.544;13.374;2022-11-12T11:50:58;11.00;;;6.43;;
2129;SDS011;1071;52.544;13.374;2022-11-12T11:53:32;7.70;;;6.87;;
2129;SDS011;1071;52.544;13.374;2022-11-12T11:56:08;6.03;;;5.43;;
2129;SDS011;1071;52.544;13.374;2022-11-12T11:58:48;9.17;;;5.53;;
2129;SDS011;1071;52.544;13.374;2022-11-12T12:01:27;7.90;;;6.97;;
2129;SDS011;1071;52.544;13.374;2022-11-12T12:04:05;7.50;;;5.87;;
2129;SDS011;1071;52.544;13.374;2022-11-12T12:06:58;8.70;;;6.80;;
2129;SDS011;1071;52.544;13.374;2022-11-12T12:09:34;7.10;;;6.50;;
2129;SDS011;1071;52.544;13.374;2022-11-12T12:12:10;8.10;;;7.30;;
2129;SDS011;1071;52.544;13.374;2022-11-12T12:15:07;9.40;;;6.60;;
2129;SDS011;1071;52.544;13.374;2022-11-12T12:17:53;10.13;;;5.97;;
2129;SDS011;1071;52.544;13.374;2022-11-12T12:20:28;8.33;;;6.13;;
2129;SDS011;1071;52.544;13.374;2022-11-12T12:23:02;6.17;;;5.57;;
2129;SDS011;1071;52.544;13.374;2022-11-12T12:25:36;6.03;;;5.50;;
2129;SDS011;1071;52.544;13.374;2022-11-12T12:28:07;6.47;;;5.73;;
2129;SDS011;1071;52.544;13.374;2022-11-12T12:30:57;6.77;;;5.90;;
2129;SDS011;1071;52.544;13.374;2022-11-12T12:33:35;6.83;;;6.13;;
2129;SDS011;1071;52.544;13.374;2022-11-12T12:36:16;6.77;;;5.70;;
2129;SDS011;1071;52.544;13.374;2022-11-12T12:38:47;7.53;;;6.53;;
2129;SDS011;1071;52.544;13.374;2022-11-12T12:41:17;6.13;;;5.10;;
2129;SDS011;1071;52.544;13.374;2022-11-12T12:44:01;6.20;;;5.60;;
2129;SDS011;1071;52.544;13.374;2022-11-12T12:46:55;6.00;;;5.40;;
2129;SDS011;1071;52.544;13.374;2022-11-12T12:49:27;6.53;;;5.83;;
2129;SDS011;1071;52.544;13.374;2022-11-12T12:51:58;9.13;;;7.10;;
2129;SDS011;1071;52.544;13.374;2022-11-12T12:57:31;8.90;;;8.00;;
2129;SDS011;1071;52.544;13.374;2022-11-12T13:02:58;9.50;;;8.40;;
2129;SDS011;1071;52.544;13.374;2022-11-12T13:05:33;12.23;;;10.97;;
2129;SDS011;1071;52.544;13.374;2022-11-12T13:08:04;12.80;;;11.00;;
2129;SDS011;1071;52.544;13.374;2022-11-12T13:13:22;10.40;;;9.30;;
2129;SDS011;1071;52.544;13.374;2022-11-12T13:16:00;11.53;;;10.40;;
2129;SDS011;1071;52.544;13.374;2022-11-12T13:21:36;10.40;;;9.30;;
2129;SDS011;1071;52.544;13.374;2022-11-12T13:24:09;10.50;;;9.47;;
2129;SDS011;1071;52.544;13.374;2022-11-12T13:26:41;9.53;;;8.67;;
2129;SDS011;1071;52.544;13.374;2022-11-12T13:29:24;14.93;;;10.50;;
2129;SDS011;1071;52.544;13.374;2022-11-12T13:35:18;10.80;;;9.00;;
2129;SDS011;1071;52.544;13.374;2022-11-12T13:37:51;9.53;;;8.63;;
2129;SDS011;1071;52.544;13.374;2022-11-12T13:40:24;11.40;;;9.80;;
2129;SDS011;1071;52.544;13.374;2022-11-12T13:46:22;9.10;;;8.23;;
2129;SDS011;1071;52.544;13.374;2022-11-12T13:49:01;8.40;;;7.60;;
2129;SDS011;1071;52.544;13.374;2022-11-12T13:51:34;9.13;;;8.23;;
2129;SDS011;1071;52.544;13.374;2022-11-12T13:56:52;8.13;;;6.90;;
2129;SDS011;1071;52.544;13.374;2022-11-12T13:59:24;8.53;;;7.63;;
2129;SDS011;1071;52.544;13.374;2022-11-12T14:01:52;9.33;;;7.23;;
2129;SDS011;1071;52.544;13.374;2022-11-12T14:04:20;6.93;;;6.23;;
2129;SDS011;1071;52.544;13.374;2022-11-12T14:06:49;7.07;;;6.37;;
2129;SDS011;1071;52.544;13.374;2022-11-12T14:09:24;8.77;;;7.37;;
2129;SDS011;1071;52.544;13.374;2022-11-12T14:12:06;8.93;;;6.27;;
2129;SDS011;1071;52.544;13.374;2022-11-12T14:14:48;7.70;;;6.77;;
2129;SDS011;1071;52.544;13.374;2022-11-12T14:17:30;6.97;;;6.27;;
2129;SDS011;1071;52.544;13.374;2022-11-12T14:20:21;7.23;;;6.47;;
2129;SDS011;1071;52.544;13.374;2022-11-12T14:22:50;7.97;;;6.00;;
2129;SDS011;1071;52.544;13.374;2022-11-12T14:25:22;8.70;;;7.70;;
2129;SDS011;1071;52.544;13.374;2022-11-12T14:27:52;8.07;;;6.37;;
2129;SDS011;1071;52.544;13.374;2022-11-12T14:30:21;7.73;;;6.93;;
2129;SDS011;1071;52.544;13.374;2022-11-12T14:32:50;6.57;;;5.97;;
2129;SDS011;1071;52.544;13.374;2022-11-12T14:35:28;6.90;;;6.20;;
2129;SDS011;1071;52.544;13.374;2022-11-12T14:37:58;8.03;;;7.17;;
2129;SDS011;1071;52.544;13.374;2022-11-12T14:40:32;8.17;;;6.10;;
2129;SDS011;1071;52.544;13.374;2022-11-12T14:43:02;7.13;;;6.40;;
2129;SDS011;1071;52.544;13.374;2022-11-12T14:45:29;8.50;;;6.43;;
2129;SDS011;1071;52.544;13.374;2022-11-12T14:48:06;7.63;;;6.60;;
2129;SDS011;1071;52.544;13.374;2022-11-12T14:53:34;9.13;;;7.70;;
2129;SDS011;1071;52.544;13.374;2022-11-12T14:56:10;9.00;;;8.10;;
2129;SDS011;1071;52.544;13.374;2022-11-12T14:58:41;8.37;;;7.47;;
2129;SDS011;1071;52.544;13.374;2022-11-12T15:01:21;8.80;;;7.90;;
2129;SDS011;1071;52.544;13.374;2022-11-12T15:03:52;9.37;;;8.47;;
2129;SDS011;1071;52.544;13.374;2022-11-12T15:06:41;9.63;;;8.30;;
2129;SDS011;1071;52.544;13.374;2022-11-12T15:09:31;9.90;;;8.90;;
2129;SDS011;1071;52.544;13.374;2022-11-12T15:12:01;10.63;;;9.20;;
2129;SDS011;1071;52.544;13.374;2022-11-12T15:14:30;8.80;;;8.10;;
2129;SDS011;1071;52.544;13.374;2022-11-12T15:17:03;9.70;;;8.77;;
2129;SDS011;1071;52.544;13.374;2022-11-12T15:19:36;10.37;;;8.20;;
2129;SDS011;1071;52.544;13.374;2022-11-12T15:22:15;9.07;;;8.17;;
2129;SDS011;1071;52.544;13.374;2022-11-12T15:24:50;8.90;;;8.00;;
2129;SDS011;1071;52.544;13.374;2022-11-12T15:27:32;10.07;;;8.40;;
2129;SDS011;1071;52.544;13.374;2022-11-12T15:30:07;9.13;;;8.10;;
2129;SDS011;1071;52.544;13.374;2022-11-12T15:32:43;9.35;;;8.45;;
2129;SDS011;1071;52.544;13.374;2022-11-12T15:38:09;10.23;;;9.20;;
2129;SDS011;1071;52.544;13.374;2022-11-12T15:40:42;11.20;;;9.35;;
2129;SDS011;1071;52.544;13.374;2022-11-12T15:43:14;10.60;;;7.97;;
2129;SDS011;1071;52.544;13.374;2022-11-12T15:45:46;10.70;;;9.00;;
2129;SDS011;1071;52.544;13.374;2022-11-12T15:48:16;10.77;;;9.13;;
2129;SDS011;1071;52.544;13.374;2022-11-12T15:50:47;13.93;;;11.30;;
2129;SDS011;1071;52.544;13.374;2022-11-12T15:53:18;10.40;;;9.50;;
2129;SDS011;1071;52.544;13.374;2022-11-12T15:55:48;11.05;;;9.90;;
2129;SDS011;1071;52.544;13.374;2022-11-12T15:58:19;10.63;;;9.53;;
2129;SDS011;1071;52.544;13.374;2022-11-12T16:00:52;12.30;;;11.00;;
2129;SDS011;1071;52.544;13.374;2022-11-12T16:03:20;10.57;;;9.50;;
2129;SDS011;1071;52.544;13.374;2022-11-12T16:05:47;11.55;;;10.38;;
2129;SDS011;1071;52.544;13.374;2022-11-12T16:08:15;10.57;;;9.57;;
2129;SDS011;1071;52.544;13.374;2022-11-12T16:10:43;12.13;;;10.93;;